Time;durP1;ratioP1;P1;durP2;ratioP2;P2;SDS_P1;SDS_P2;PMS_P1;PMS_P2;Temp;Humidity;BMP_temperature;BMP_pressure;BME280_temperature;BME280_humidity;BME280_pressure;Samples;Min_cycle;Max_cycle;Signal;HPM_P1;HPM_P2
2022/04/07 00:00:46;;;;;;;8.75;8.05;;;9.70;99.90;;;;;;5021733;28;20326;-77
2022/04/07 00:03:14;;;;;;;8.32;7.63;;;9.70;99.90;;;;;;5027354;28;20210;-76
2022/04/07 00:05:43;;;;;;;8.80;8.10;;;9.70;99.90;;;;;;5030505;28;20218;-76
2022/04/07 00:08:11;;;;;;;8.88;7.97;;;9.70;99.90;;;;;;5039698;28;20210;-72
2022/04/07 00:10:42;;;;;;;8.32;7.63;;;9.70;99.90;;;;;;5033535;28;20438;-73
2022/04/07 00:13:10;;;;;;;9.23;8.52;;;9.70;99.90;;;;;;5025164;28;20766;-73
2022/04/07 00:15:37;;;;;;;8.63;7.75;;;9.70;99.90;;;;;;5040133;28;20637;-76
2022/04/07 00:18:06;;;;;;;9.38;8.57;;;9.60;99.90;;;;;;5031718;28;20206;-74
2022/04/07 00:20:34;;;;;;;7.93;7.22;;;9.60;99.90;;;;;;5019240;28;20218;-75
2022/04/07 00:23:04;;;;;;;9.38;8.65;;;9.70;99.90;;;;;;5019550;28;20309;-75
2022/04/07 00:25:32;;;;;;;8.20;7.50;;;9.70;99.90;;;;;;5019665;28;20222;-74
2022/04/07 00:28:00;;;;;;;8.77;8.02;;;9.70;99.90;;;;;;5020210;28;20209;-74
2022/04/07 00:30:27;;;;;;;8.05;7.35;;;9.70;99.90;;;;;;5020945;28;20391;-75
2022/04/07 00:32:55;;;;;;;8.57;7.78;;;9.70;99.90;;;;;;5019888;28;20225;-75
2022/04/07 00:35:25;;;;;;;8.48;7.78;;;9.70;99.90;;;;;;5019564;28;20201;-74
2022/04/07 00:37:53;;;;;;;8.57;7.50;;;9.70;99.90;;;;;;5018385;28;20230;-74
2022/04/07 00:40:22;;;;;;;7.70;7.05;;;9.80;99.90;;;;;;5018757;28;20225;-74
2022/04/07 00:42:52;;;;;;;7.70;6.80;;;9.80;99.90;;;;;;5019216;28;20677;-72
2022/04/07 00:45:22;;;;;;;8.40;7.63;;;9.80;99.90;;;;;;5018821;28;20214;-71
2022/04/07 00:47:52;;;;;;;8.60;7.90;;;9.80;99.90;;;;;;5018847;28;20763;-71
2022/04/07 00:50:21;;;;;;;8.13;7.32;;;9.90;99.90;;;;;;5018654;28;20433;-73
2022/04/07 00:52:56;;;;;;;7.90;7.07;;;9.80;99.90;;;;;;5018957;28;20212;-73
2022/04/07 00:55:27;;;;;;;11.43;8.10;;;9.90;99.90;;;;;;5019052;28;20399;-74
2022/04/07 00:57:55;;;;;;;7.85;7.22;;;9.90;99.90;;;;;;5019698;28;20191;-73
2022/04/07 01:00:23;;;;;;;7.78;7.18;;;9.90;99.90;;;;;;5019274;28;20797;-74
2022/04/07 01:02:51;;;;;;;7.28;6.63;;;9.90;99.90;;;;;;5018625;28;20295;-73
2022/04/07 01:05:23;;;;;;;11.02;7.20;;;9.90;99.90;;;;;;5018973;28;20226;-74
2022/04/07 01:07:51;;;;;;;8.13;7.45;;;9.90;99.90;;;;;;5018669;28;20206;-74
2022/04/07 01:10:21;;;;;;;9.73;7.28;;;10.00;99.90;;;;;;5017887;28;20236;-73
2022/04/07 01:12:50;;;;;;;8.38;7.63;;;9.90;99.90;;;;;;5018276;28;20207;-73
2022/04/07 01:15:18;;;;;;;8.93;8.18;;;9.80;99.90;;;;;;5018568;28;20210;-73
2022/04/07 01:17:46;;;;;;;8.05;7.35;;;9.80;99.90;;;;;;5017974;28;20293;-72
2022/04/07 01:20:14;;;;;;;7.53;6.85;;;9.80;99.90;;;;;;5018628;28;20241;-73
2022/04/07 01:22:45;;;;;;;8.70;8.00;;;9.80;99.90;;;;;;5025837;28;20611;-73
2022/04/07 01:25:14;;;;;;;8.40;7.60;;;9.80;99.90;;;;;;5027236;28;20221;-72
2022/04/07 01:27:48;;;;;;;10.70;9.68;;;9.90;99.90;;;;;;5018131;28;20445;-73
2022/04/07 01:30:17;;;;;;;10.00;9.00;;;9.90;99.90;;;;;;5018069;28;20222;-73
2022/04/07 01:32:50;;;;;;;10.75;9.73;;;9.80;99.90;;;;;;5017858;28;20217;-73
2022/04/07 01:35:20;;;;;;;9.80;9.02;;;9.80;99.90;;;;;;5017462;28;20466;-72
2022/04/07 01:37:49;;;;;;;10.50;9.32;;;9.80;99.90;;;;;;5017768;28;20702;-73
2022/04/07 01:40:26;;;;;;;11.77;9.68;;;9.70;99.90;;;;;;5026717;28;20233;-73
2022/04/07 01:42:54;;;;;;;9.35;8.35;;;9.70;99.90;;;;;;5027370;28;20205;-73
2022/04/07 01:45:23;;;;;;;10.88;9.75;;;9.60;99.90;;;;;;5018151;28;20203;-73
2022/04/07 01:47:53;;;;;;;9.52;8.60;;;9.60;99.90;;;;;;5018753;28;20213;-73
2022/04/07 01:50:24;;;;;;;10.20;8.80;;;9.60;99.90;;;;;;5021373;28;20409;-70
2022/04/07 01:52:52;;;;;;;9.25;8.45;;;9.50;99.90;;;;;;5022259;28;20213;-72
2022/04/07 01:55:22;;;;;;;11.10;8.35;;;9.50;99.90;;;;;;5022127;28;20475;-71
2022/04/07 01:57:51;;;;;;;10.27;9.35;;;9.50;99.90;;;;;;5022184;28;20194;-73
2022/04/07 02:00:19;;;;;;;8.68;7.90;;;9.60;99.90;;;;;;5022301;28;20218;-72
2022/04/07 02:02:47;;;;;;;9.82;8.82;;;9.60;99.90;;;;;;5022819;28;20356;-73
2022/04/07 02:05:15;;;;;;;9.63;7.38;;;9.70;99.90;;;;;;5022128;28;20206;-71
2022/04/07 02:07:44;;;;;;;8.18;7.38;;;9.70;99.90;;;;;;5022152;28;20218;-74
2022/04/07 02:10:14;;;;;;;7.43;6.72;;;9.70;99.90;;;;;;5022373;28;20226;-72
2022/04/07 02:12:43;;;;;;;7.70;6.95;;;9.70;99.90;;;;;;5021718;28;20594;-73
2022/04/07 02:15:12;;;;;;;8.75;7.88;;;9.80;99.90;;;;;;5022080;28;20237;-74
2022/04/07 02:17:40;;;;;;;9.15;8.38;;;9.80;99.90;;;;;;5022004;28;20753;-73
2022/04/07 02:20:10;;;;;;;8.23;6.90;;;9.80;99.90;;;;;;5021807;28;20198;-72
2022/04/07 02:22:38;;;;;;;8.10;7.50;;;9.90;99.90;;;;;;5021834;28;20293;-73
2022/04/07 02:25:08;;;;;;;8.73;7.82;;;9.90;99.90;;;;;;5022588;28;20221;-73
2022/04/07 02:27:37;;;;;;;7.38;6.50;;;9.90;99.90;;;;;;5022715;28;20198;-72
2022/04/07 02:30:08;;;;;;;7.82;7.18;;;9.90;99.90;;;;;;5023602;28;20218;-73
2022/04/07 02:32:36;;;;;;;11.15;7.53;;;10.00;99.90;;;;;;5023480;28;20202;-72
2022/04/07 02:35:05;;;;;;;9.43;7.53;;;9.90;99.90;;;;;;5022790;28;20210;-72
2022/04/07 02:37:33;;;;;;;7.85;7.25;;;9.90;99.90;;;;;;5022582;28;20209;-72
2022/04/07 02:40:00;;;;;;;8.48;7.68;;;10.00;99.90;;;;;;5022008;28;20191;-73
2022/04/07 02:42:28;;;;;;;8.80;7.97;;;9.90;99.90;;;;;;5022152;28;20203;-72
2022/04/07 02:44:55;;;;;;;7.85;7.00;;;9.90;99.90;;;;;;5021543;28;20199;-70
2022/04/07 02:47:32;;;;;;;8.27;7.35;;;9.90;99.90;;;;;;5021289;28;20210;-72
2022/04/07 02:50:00;;;;;;;7.40;6.75;;;9.90;99.90;;;;;;5021649;28;20229;-74
2022/04/07 02:52:28;;;;;;;8.43;7.47;;;9.90;99.90;;;;;;5021962;28;20213;-74
2022/04/07 02:54:56;;;;;;;8.25;7.50;;;9.90;99.90;;;;;;5022516;28;20198;-75
2022/04/07 02:57:25;;;;;;;8.05;7.35;;;9.90;99.90;;;;;;5021249;28;20210;-75
2022/04/07 02:59:53;;;;;;;11.18;8.30;;;9.90;99.90;;;;;;5020057;28;20195;-74
2022/04/07 03:02:21;;;;;;;8.93;8.02;;;9.90;99.90;;;;;;5021826;28;20198;-74
2022/04/07 03:04:50;;;;;;;11.00;7.80;;;9.90;99.90;;;;;;5022158;28;20550;-74
2022/04/07 03:07:19;;;;;;;9.20;8.30;;;9.90;99.90;;;;;;5021574;28;20202;-75
2022/04/07 03:09:47;;;;;;;9.77;8.85;;;9.90;99.90;;;;;;5021498;28;20222;-74
2022/04/07 03:12:15;;;;;;;10.98;8.85;;;9.80;99.90;;;;;;5021117;28;20502;-74
2022/04/07 03:14:43;;;;;;;10.68;9.60;;;9.80;99.90;;;;;;5020473;28;20199;-73
2022/04/07 03:17:11;;;;;;;12.95;10.77;;;9.70;99.90;;;;;;5021030;28;20553;-74
2022/04/07 03:19:39;;;;;;;11.23;10.13;;;9.60;99.90;;;;;;5020967;28;20209;-75
2022/04/07 03:22:08;;;;;;;11.50;10.40;;;9.60;99.90;;;;;;5021733;28;20215;-73
2022/04/07 03:24:36;;;;;;;10.85;9.85;;;9.60;99.90;;;;;;5020734;28;20534;-75
2022/04/07 03:27:06;;;;;;;12.18;10.88;;;9.60;99.90;;;;;;5020632;28;20214;-71
2022/04/07 03:29:35;;;;;;;14.43;11.55;;;9.70;99.90;;;;;;5022337;28;20241;-73
2022/04/07 03:32:04;;;;;;;11.45;10.32;;;9.70;99.90;;;;;;5031948;28;20229;-74
2022/04/07 03:34:33;;;;;;;12.68;10.50;;;9.80;99.90;;;;;;5038715;28;20344;-71
2022/04/07 03:37:01;;;;;;;11.90;10.82;;;9.80;99.90;;;;;;5020537;28;20213;-73
2022/04/07 03:39:31;;;;;;;12.57;11.40;;;9.80;99.90;;;;;;5020608;28;20209;-73
2022/04/07 03:41:59;;;;;;;12.70;11.50;;;9.80;99.90;;;;;;5020581;28;20222;-72
2022/04/07 03:44:27;;;;;;;12.40;11.10;;;9.70;99.90;;;;;;5020097;28;20206;-72
2022/04/07 03:46:55;;;;;;;10.23;9.32;;;9.70;99.90;;;;;;5019811;28;20210;-74
2022/04/07 03:49:23;;;;;;;10.70;9.68;;;9.70;99.90;;;;;;5019884;28;20202;-72
2022/04/07 03:51:51;;;;;;;11.23;10.23;;;9.80;99.90;;;;;;5019266;28;20482;-72
2022/04/07 03:54:19;;;;;;;11.68;9.57;;;9.80;99.90;;;;;;5022167;28;20226;-70
2022/04/07 03:56:48;;;;;;;10.50;9.60;;;9.80;99.90;;;;;;5020354;28;20658;-74
2022/04/07 03:59:16;;;;;;;10.05;9.05;;;9.80;99.90;;;;;;5019533;28;20293;-73
2022/04/07 04:01:44;;;;;;;8.48;7.70;;;9.80;99.90;;;;;;5020962;28;20223;-73
2022/04/07 04:04:15;;;;;;;9.05;8.18;;;9.80;99.90;;;;;;5020119;28;20309;-72
2022/04/07 04:06:43;;;;;;;9.35;8.55;;;9.90;99.90;;;;;;5020281;28;20234;-73
2022/04/07 04:09:10;;;;;;;9.30;8.48;;;9.90;99.90;;;;;;5029303;28;20206;-74
2022/04/07 04:11:38;;;;;;;7.88;7.28;;;9.90;99.90;;;;;;5020585;28;20240;-72
2022/04/07 04:14:08;;;;;;;7.65;6.95;;;9.90;99.90;;;;;;5020607;28;20212;-69
2022/04/07 04:16:35;;;;;;;7.95;7.20;;;9.90;99.90;;;;;;5020056;28;20210;-71
2022/04/07 04:19:04;;;;;;;8.98;7.68;;;9.80;99.90;;;;;;5019982;28;20491;-73
2022/04/07 04:21:32;;;;;;;7.45;6.65;;;9.80;99.90;;;;;;5019914;28;20226;-73
2022/04/07 04:24:00;;;;;;;7.22;6.63;;;9.80;99.90;;;;;;5019090;28;20194;-74
2022/04/07 04:26:27;;;;;;;8.07;6.53;;;9.80;99.90;;;;;;5026278;28;20214;-73
2022/04/07 04:28:55;;;;;;;7.15;5.97;;;9.80;99.90;;;;;;5029772;28;20448;-73
2022/04/07 04:31:25;;;;;;;6.05;5.65;;;9.80;99.90;;;;;;5026078;28;20230;-75
2022/04/07 04:33:53;;;;;;;6.40;6.00;;;9.80;99.90;;;;;;5032428;28;20209;-73
2022/04/07 04:36:21;;;;;;;6.13;5.63;;;9.80;99.90;;;;;;5028762;28;20197;-74
2022/04/07 04:38:50;;;;;;;6.10;5.70;;;9.70;99.90;;;;;;5027045;28;20277;-73
2022/04/07 04:41:18;;;;;;;7.07;6.30;;;9.70;99.90;;;;;;5033198;28;20256;-74
2022/04/07 04:43:45;;;;;;;6.70;5.80;;;9.80;99.90;;;;;;5031779;28;20202;-74
2022/04/07 04:46:13;;;;;;;6.25;5.75;;;9.80;99.90;;;;;;5031801;28;20213;-71
2022/04/07 04:48:43;;;;;;;6.10;5.60;;;9.80;99.90;;;;;;5030758;28;20218;-73
2022/04/07 04:51:11;;;;;;;9.35;6.43;;;9.80;99.90;;;;;;5026247;28;20233;-72
2022/04/07 04:53:39;;;;;;;7.35;6.75;;;9.80;99.90;;;;;;5039562;28;20188;-73
2022/04/07 04:56:07;;;;;;;7.30;6.70;;;9.70;99.90;;;;;;5021733;28;20220;-72
2022/04/07 04:58:35;;;;;;;6.47;5.90;;;9.70;99.90;;;;;;5024204;28;20261;-74
2022/04/07 05:01:03;;;;;;;6.97;6.25;;;9.80;99.90;;;;;;5034674;28;20289;-74
2022/04/07 05:03:31;;;;;;;6.70;6.20;;;10.00;99.90;;;;;;5039898;28;20626;-74
2022/04/07 05:06:00;;;;;;;7.10;6.60;;;10.10;99.90;;;;;;5030060;28;20209;-71
2022/04/07 05:08:28;;;;;;;7.15;6.45;;;10.30;99.90;;;;;;5045642;28;20666;-72
2022/04/07 05:10:56;;;;;;;5.53;5.00;;;10.40;99.90;;;;;;5033147;28;20230;-75
2022/04/07 05:13:24;;;;;;;6.60;6.00;;;10.50;99.90;;;;;;5022194;28;20212;-76
2022/04/07 05:15:52;;;;;;;6.88;6.30;;;10.60;99.90;;;;;;5022268;28;21094;-73
2022/04/07 05:18:19;;;;;;;7.00;6.50;;;10.70;99.90;;;;;;5022058;28;20195;-72
2022/04/07 05:20:47;;;;;;;6.63;6.10;;;10.90;99.90;;;;;;5031416;28;20579;-76
2022/04/07 05:23:17;;;;;;;6.20;5.70;;;10.90;99.90;;;;;;5028866;28;20893;-74
2022/04/07 05:25:45;;;;;;;6.27;5.67;;;10.90;99.90;;;;;;5020162;28;20460;-75
2022/04/07 05:28:13;;;;;;;6.33;5.73;;;10.90;99.90;;;;;;5020184;28;20456;-73
2022/04/07 05:30:41;;;;;;;5.27;4.60;;;10.90;99.90;;;;;;5027435;28;20493;-72
2022/04/07 05:33:10;;;;;;;6.53;5.87;;;11.00;99.90;;;;;;5028723;28;20484;-75
2022/04/07 05:35:41;;;;;;;5.00;4.60;;;11.10;99.90;;;;;;5026509;28;20458;-72
2022/04/07 05:38:12;;;;;;;6.97;4.20;;;11.10;99.90;;;;;;5038856;28;20637;-75
2022/04/07 05:40:43;;;;;;;4.30;4.00;;;11.20;99.90;;;;;;5029712;28;20474;-73
2022/04/07 05:43:11;;;;;;;4.33;3.83;;;11.20;99.90;;;;;;5037834;28;20799;-75
2022/04/07 05:45:41;;;;;;;6.40;4.63;;;11.20;99.90;;;;;;5029652;28;20449;-75
2022/04/07 05:48:10;;;;;;;3.70;3.47;;;11.30;99.90;;;;;;5017477;28;20457;-74
2022/04/07 05:50:38;;;;;;;4.70;3.17;;;11.40;99.90;;;;;;5017500;28;20482;-75
2022/04/07 05:53:07;;;;;;;3.77;3.37;;;11.40;99.90;;;;;;5022036;28;20484;-74
2022/04/07 05:55:35;;;;;;;5.10;2.90;;;11.40;99.90;;;;;;5032500;28;20559;-74
2022/04/07 05:58:05;;;;;;;3.40;3.20;;;11.30;99.90;;;;;;5038691;28;21035;-74
2022/04/07 06:00:33;;;;;;;3.43;2.97;;;11.30;99.90;;;;;;5040416;28;20537;-73
2022/04/07 06:03:01;;;;;;;4.20;2.90;;;11.40;99.90;;;;;;5038406;28;20440;-74
2022/04/07 06:05:29;;;;;;;3.33;3.03;;;11.40;99.90;;;;;;5032231;28;20932;-73
2022/04/07 06:07:59;;;;;;;3.90;3.30;;;11.40;99.90;;;;;;5018219;28;20445;-73
2022/04/07 06:10:27;;;;;;;3.23;3.03;;;11.30;99.90;;;;;;5017940;28;20460;-73
2022/04/07 06:12:55;;;;;;;4.33;3.40;;;11.20;99.90;;;;;;5017617;28;20497;-75
2022/04/07 06:15:24;;;;;;;5.43;3.50;;;11.30;99.90;;;;;;5037002;28;20452;-74
2022/04/07 06:17:54;;;;;;;3.37;3.27;;;11.30;99.90;;;;;;5037938;28;20551;-73
2022/04/07 06:20:22;;;;;;;4.77;3.70;;;11.30;99.90;;;;;;5031590;28;21000;-72
2022/04/07 06:22:50;;;;;;;4.47;4.07;;;11.20;99.90;;;;;;5018925;28;20484;-72
2022/04/07 06:25:18;;;;;;;4.80;4.30;;;11.00;99.90;;;;;;5021567;28;20875;-73
2022/04/07 06:27:47;;;;;;;4.75;4.45;;;10.90;99.90;;;;;;5038379;28;20462;-72
2022/04/07 06:30:17;;;;;;;8.82;4.75;;;10.70;99.90;;;;;;5037627;28;20336;-72
2022/04/07 06:32:49;;;;;;;5.40;4.90;;;10.50;99.90;;;;;;5036382;28;20313;-72
2022/04/07 06:35:17;;;;;;;6.43;5.93;;;10.40;99.90;;;;;;5026840;28;20459;-72
2022/04/07 06:37:49;;;;;;;6.07;5.47;;;10.40;99.90;;;;;;5029882;28;20576;-72
2022/04/07 06:40:20;;;;;;;6.10;5.65;;;10.30;99.90;;;;;;5032793;28;20385;-72
2022/04/07 06:42:48;;;;;;;6.18;5.53;;;10.30;99.90;;;;;;5023266;28;20198;-72
2022/04/07 06:45:22;;;;;;;9.52;7.13;;;10.30;99.90;;;;;;5032784;28;20244;-72
2022/04/07 06:47:52;;;;;;;6.27;5.77;;;10.30;99.90;;;;;;5036265;28;20224;-72
2022/04/07 06:50:23;;;;;;;7.68;6.82;;;10.30;99.90;;;;;;5040575;28;20471;-72
2022/04/07 06:52:53;;;;;;;6.65;5.88;;;10.50;99.90;;;;;;5040012;28;20221;-73
2022/04/07 06:55:21;;;;;;;7.63;5.60;;;10.60;99.90;;;;;;5020852;28;20215;-72
2022/04/07 06:57:53;;;;;;;9.80;5.70;;;10.60;99.90;;;;;;5020567;28;20267;-72
2022/04/07 07:00:23;;;;;;;8.98;5.88;;;10.60;99.90;;;;;;5020963;28;20861;-72
2022/04/07 07:02:57;;;;;;;6.25;5.63;;;10.60;99.90;;;;;;5020998;28;20212;-71
2022/04/07 07:05:26;;;;;;;12.15;5.63;;;10.60;99.90;;;;;;5020781;28;20467;-72
2022/04/07 07:07:54;;;;;;;5.15;4.65;;;10.60;99.90;;;;;;5024103;28;20673;-71
2022/04/07 07:10:24;;;;;;;7.22;4.63;;;10.50;99.90;;;;;;5033114;28;20394;-71
2022/04/07 07:12:53;;;;;;;8.43;5.53;;;10.60;99.90;;;;;;5030485;28;20517;-72
2022/04/07 07:15:21;;;;;;;5.95;5.03;;;10.70;99.90;;;;;;5034150;28;20214;-71
2022/04/07 07:17:51;;;;;;;4.70;4.30;;;10.70;99.90;;;;;;5024610;28;20670;-72
2022/04/07 07:20:21;;;;;;;7.40;4.83;;;10.70;99.90;;;;;;5019354;28;20613;-72
2022/04/07 07:22:48;;;;;;;6.20;4.38;;;10.80;99.90;;;;;;5022168;28;20468;-72
2022/04/07 07:25:17;;;;;;;5.45;4.90;;;10.90;99.90;;;;;;5028137;28;20510;-72
2022/04/07 07:27:46;;;;;;;4.23;3.93;;;11.00;99.90;;;;;;5036277;28;20238;-73
2022/04/07 07:30:16;;;;;;;6.00;4.17;;;11.10;99.90;;;;;;5027876;28;20476;-69
2022/04/07 07:32:45;;;;;;;6.33;4.40;;;11.10;99.90;;;;;;5023228;28;20472;-73
2022/04/07 07:35:14;;;;;;;4.30;3.90;;;11.10;99.90;;;;;;5040819;28;21240;-72
2022/04/07 07:37:50;;;;;;;5.93;3.77;;;11.10;99.90;;;;;;5040510;28;20204;-72
2022/04/07 07:40:19;;;;;;;4.70;4.00;;;11.10;99.90;;;;;;5040724;28;20552;-73
2022/04/07 07:42:47;;;;;;;4.00;3.70;;;11.10;99.90;;;;;;5041035;28;20428;-76
2022/04/07 07:45:16;;;;;;;6.32;4.25;;;11.00;99.90;;;;;;5040207;28;20445;-76
2022/04/07 07:48:04;;;;;;;4.83;4.07;;;10.90;99.90;;;;;;5041001;28;20451;-75
2022/04/07 07:50:32;;;;;;;7.23;3.70;;;10.90;99.90;;;;;;5040507;28;20559;-74
2022/04/07 07:53:02;;;;;;;4.20;3.70;;;10.80;99.90;;;;;;5041188;28;20570;-74
2022/04/07 07:55:30;;;;;;;3.73;3.43;;;10.70;99.90;;;;;;5040498;28;20734;-72
2022/04/07 07:57:57;;;;;;;4.20;3.50;;;10.60;99.90;;;;;;5040163;28;21121;-73
2022/04/07 08:00:25;;;;;;;3.92;3.53;;;10.60;99.90;;;;;;5041010;28;20481;-73
2022/04/07 08:02:53;;;;;;;9.10;4.43;;;10.40;99.90;;;;;;5041570;28;20189;-73
2022/04/07 08:05:21;;;;;;;4.15;3.58;;;10.30;99.90;;;;;;5041368;28;20205;-73
2022/04/07 08:07:50;;;;;;;3.45;3.17;;;10.20;99.90;;;;;;5040957;28;20566;-73
2022/04/07 08:10:19;;;;;;;5.68;4.60;;;10.10;99.90;;;;;;5040593;28;20291;-74
2022/04/07 08:12:49;;;;;;;4.72;3.78;;;10.10;99.90;;;;;;5040483;28;20222;-71
2022/04/07 08:15:17;;;;;;;4.70;3.88;;;10.10;99.90;;;;;;5040543;28;20206;-73
2022/04/07 08:17:45;;;;;;;4.20;3.75;;;10.10;99.90;;;;;;5041621;28;20530;-74
2022/04/07 08:20:13;;;;;;;6.55;4.53;;;10.10;99.90;;;;;;5043786;28;20228;-74
2022/04/07 08:22:41;;;;;;;5.05;3.83;;;10.20;99.90;;;;;;5042275;28;20215;-73
2022/04/07 08:25:10;;;;;;;4.85;3.90;;;10.20;99.90;;;;;;5041307;28;20587;-74
2022/04/07 08:27:39;;;;;;;10.63;4.00;;;10.10;99.90;;;;;;5039786;28;20212;-73
2022/04/07 08:30:08;;;;;;;7.15;3.70;;;10.10;99.90;;;;;;5041502;28;20533;-73
2022/04/07 08:32:36;;;;;;;6.32;4.88;;;10.20;99.90;;;;;;5040715;28;20201;-74
2022/04/07 08:35:05;;;;;;;5.22;4.20;;;10.10;99.90;;;;;;5039451;28;20218;-73
2022/04/07 08:37:36;;;;;;;4.40;3.65;;;10.00;99.90;;;;;;5039098;28;20208;-77
2022/04/07 08:40:06;;;;;;;4.53;3.80;;;10.00;99.90;;;;;;5040267;28;20212;-75
2022/04/07 08:42:35;;;;;;;6.07;3.60;;;10.00;99.90;;;;;;5040607;28;20201;-75
2022/04/07 08:45:06;;;;;;;10.35;4.43;;;9.90;99.90;;;;;;5041013;28;20201;-75
2022/04/07 08:47:38;;;;;;;4.53;3.53;;;9.90;99.90;;;;;;5039831;28;20206;-75
2022/04/07 08:50:07;;;;;;;6.95;3.63;;;9.90;99.90;;;;;;5039622;28;20301;-75
2022/04/07 08:52:36;;;;;;;5.55;3.05;;;9.90;99.90;;;;;;5039168;28;20198;-75
2022/04/07 08:55:05;;;;;;;5.65;3.55;;;9.90;99.90;;;;;;5038978;28;20542;-75
2022/04/07 08:57:33;;;;;;;4.40;3.20;;;9.90;99.90;;;;;;5038634;28;20198;-74
2022/04/07 09:00:02;;;;;;;5.25;3.20;;;9.90;99.90;;;;;;5038955;28;20603;-74
2022/04/07 09:02:31;;;;;;;3.13;2.83;;;9.90;99.90;;;;;;5039079;28;20212;-74
2022/04/07 09:04:59;;;;;;;4.43;2.33;;;9.80;99.90;;;;;;5038353;28;20202;-73
2022/04/07 09:07:34;;;;;;;2.25;1.70;;;9.80;99.90;;;;;;5031854;28;20281;-74
2022/04/07 09:10:05;;;;;;;2.15;0.88;;;9.70;99.90;;;;;;5029305;28;20206;-73
2022/04/07 09:12:34;;;;;;;1.73;1.00;;;9.50;99.90;;;;;;5025788;28;20693;-73
2022/04/07 09:15:02;;;;;;;0.63;0.63;;;9.20;99.90;;;;;;5031297;28;20249;-75
2022/04/07 09:17:33;;;;;;;0.77;0.40;;;9.00;99.90;;;;;;5027068;28;20281;-74
2022/04/07 09:20:01;;;;;;;1.58;0.68;;;8.70;99.90;;;;;;5022322;28;20220;-76
2022/04/07 09:22:30;;;;;;;1.55;0.57;;;8.50;99.90;;;;;;5019333;28;20234;-75
2022/04/07 09:25:05;;;;;;;0.70;0.65;;;8.30;99.90;;;;;;5018580;28;20202;-74
2022/04/07 09:27:33;;;;;;;3.70;0.50;;;8.10;99.90;;;;;;5031481;28;20197;-75
2022/04/07 09:30:01;;;;;;;0.52;0.50;;;7.80;99.90;;;;;;5018767;28;20596;-75
2022/04/07 09:32:29;;;;;;;0.60;0.50;;;7.70;99.90;;;;;;5028542;28;20666;-73
2022/04/07 09:35:00;;;;;;;0.90;0.70;;;7.60;99.90;;;;;;5019726;28;20222;-74
2022/04/07 09:37:29;;;;;;;1.35;1.08;;;7.60;99.90;;;;;;5034292;28;20233;-74
2022/04/07 09:40:06;;;;;;;0.75;0.52;;;7.50;99.90;;;;;;5038650;28;20205;-74
2022/04/07 09:42:35;;;;;;;0.30;0.30;;;7.40;99.90;;;;;;5036503;28;20491;-75
2022/04/07 09:45:07;;;;;;;0.85;0.70;;;7.40;99.90;;;;;;5037691;28;20203;-74
2022/04/07 09:47:36;;;;;;;0.60;0.60;;;7.40;99.90;;;;;;5038297;28;20681;-76
2022/04/07 09:50:06;;;;;;;1.10;0.40;;;7.50;99.90;;;;;;5025036;28;20685;-76
2022/04/07 09:52:34;;;;;;;0.43;0.40;;;7.60;99.90;;;;;;5020591;28;20202;-74
2022/04/07 09:55:06;;;;;;;1.55;0.90;;;7.70;99.90;;;;;;5027144;28;20230;-73
2022/04/07 09:57:35;;;;;;;1.05;0.50;;;7.60;99.90;;;;;;5028987;28;20237;-74
2022/04/07 10:00:05;;;;;;;2.25;0.80;;;7.60;99.90;;;;;;5022232;28;20209;-74
2022/04/07 10:02:33;;;;;;;1.02;0.70;;;7.50;99.90;;;;;;5038327;28;20205;-74
2022/04/07 10:05:02;;;;;;;0.80;0.60;;;7.50;99.90;;;;;;5035722;28;20198;-76
2022/04/07 10:07:33;;;;;;;0.52;0.32;;;7.40;99.90;;;;;;5019220;28;20209;-74
2022/04/07 10:10:03;;;;;;;3.35;0.40;;;7.30;99.90;;;;;;5023211;28;20297;-74
2022/04/07 10:12:32;;;;;;;0.50;0.30;;;7.20;99.90;;;;;;5024002;28;20293;-74
2022/04/07 10:15:03;;;;;;;0.43;0.43;;;7.20;99.90;;;;;;5032793;28;20851;-75
2022/04/07 10:17:31;;;;;;;0.70;0.50;;;7.30;99.90;;;;;;5042896;28;20205;-74
2022/04/07 10:20:02;;;;;;;1.25;1.15;;;7.20;99.90;;;;;;5043041;28;20838;-75
2022/04/07 10:22:55;;;;;;;0.60;0.57;;;7.20;99.90;;;;;;5041928;28;20205;-74
2022/04/07 10:25:25;;;;;;;0.60;0.40;;;7.20;99.90;;;;;;5038984;28;20225;-74
2022/04/07 10:28:00;;;;;;;1.38;1.08;;;7.20;99.90;;;;;;5041262;28;20241;-75
2022/04/07 10:30:30;;;;;;;2.05;0.65;;;7.20;99.90;;;;;;5043549;28;20221;-76
2022/04/07 10:32:58;;;;;;;1.60;0.40;;;7.10;99.90;;;;;;5043255;28;20206;-74
2022/04/07 10:35:36;;;;;;;1.00;0.52;;;7.10;99.90;;;;;;5043736;28;20230;-75
2022/04/07 10:38:07;;;;;;;1.20;0.60;;;6.90;99.90;;;;;;5053059;28;20612;-74
2022/04/07 10:40:40;;;;;;;1.52;0.70;;;6.90;99.90;;;;;;5051927;28;20264;-74
2022/04/07 10:43:13;;;;;;;1.55;0.60;;;6.80;99.90;;;;;;5037554;28;20322;-73
2022/04/07 10:45:43;;;;;;;2.45;1.70;;;6.80;99.90;;;;;;5048087;28;20252;-74
2022/04/07 10:48:35;;;;;;;1.30;0.52;;;6.70;99.90;;;;;;5050992;28;20206;-74
2022/04/07 10:51:05;;;;;;;1.20;0.70;;;6.70;99.90;;;;;;5037361;28;20316;-73
2022/04/07 10:53:36;;;;;;;0.40;0.40;;;6.60;99.90;;;;;;5027253;28;20214;-74
2022/04/07 10:56:07;;;;;;;0.57;0.40;;;6.50;99.90;;;;;;5033385;28;20216;-75
2022/04/07 10:58:54;;;;;;;1.60;0.70;;;6.50;99.90;;;;;;5040794;28;20578;-74
2022/04/07 11:01:52;;;;;;;1.85;0.70;;;6.40;99.90;;;;;;5039191;28;20213;-73
2022/04/07 11:04:44;;;;;;;1.88;0.65;;;6.30;99.90;;;;;;5040603;28;20194;-76
2022/04/07 11:07:19;;;;;;;1.23;0.80;;;6.30;99.90;;;;;;5039861;28;20204;-74
2022/04/07 11:10:13;;;;;;;0.65;0.65;;;6.30;99.90;;;;;;5036099;28;20722;-75
2022/04/07 11:12:44;;;;;;;0.73;0.63;;;6.30;99.90;;;;;;5041101;28;20956;-75
2022/04/07 11:15:51;;;;;;;0.88;0.63;;;6.30;99.90;;;;;;5040384;28;20612;-75
2022/04/07 11:18:39;;;;;;;0.70;0.70;;;6.40;99.90;;;;;;5024751;28;20285;-75
2022/04/07 11:21:12;;;;;;;1.90;0.90;;;6.60;99.90;;;;;;5037207;28;20226;-74
2022/04/07 11:23:42;;;;;;;1.10;0.90;;;6.70;99.90;;;;;;5040328;28;20248;-73
2022/04/07 11:26:13;;;;;;;1.63;1.35;;;6.70;99.90;;;;;;5040243;28;20190;-74
2022/04/07 11:29:06;;;;;;;0.90;0.80;;;6.70;99.90;;;;;;5037949;28;20659;-75
2022/04/07 11:31:42;;;;;;;0.93;0.93;;;6.70;99.90;;;;;;5039130;28;20237;-75
2022/04/07 11:34:42;;;;;;;1.58;1.10;;;6.80;99.90;;;;;;5043244;28;20225;-78
2022/04/07 11:37:11;;;;;;;2.55;2.00;;;6.90;99.90;;;;;;5026650;28;20471;-78
2022/04/07 11:39:40;;;;;;;1.83;1.58;;;7.00;99.90;;;;;;5025581;28;20210;-78
2022/04/07 11:42:17;;;;;;;3.22;1.50;;;7.20;99.90;;;;;;5023827;28;20221;-75
2022/04/07 11:44:47;;;;;;;1.80;1.40;;;7.50;99.90;;;;;;5021346;28;20285;-74
2022/04/07 11:47:22;;;;;;;1.65;1.55;;;7.80;99.90;;;;;;5033324;28;20209;-75
2022/04/07 11:49:50;;;;;;;1.20;1.10;;;8.10;99.90;;;;;;5039516;28;20213;-75
2022/04/07 11:52:24;;;;;;;1.38;1.27;;;8.30;99.90;;;;;;5031268;28;20206;-74
2022/04/07 11:54:55;;;;;;;2.47;1.23;;;8.50;99.90;;;;;;5020917;28;20233;-75
2022/04/07 11:57:26;;;;;;;1.15;0.88;;;8.80;99.90;;;;;;5020692;28;20202;-75
2022/04/07 11:59:58;;;;;;;4.68;1.35;;;8.90;99.90;;;;;;5018758;28;20481;-75
2022/04/07 12:02:27;;;;;;;2.92;1.38;;;9.00;99.90;;;;;;5019592;28;20207;-75
2022/04/07 12:05:00;;;;;;;2.17;1.13;;;9.20;99.90;;;;;;5019893;28;20472;-75
2022/04/07 12:07:29;;;;;;;2.25;1.08;;;9.30;99.90;;;;;;5019184;28;20723;-75
2022/04/07 12:10:05;;;;;;;1.60;1.30;;;9.50;99.90;;;;;;5035532;28;20227;-78
2022/04/07 12:12:41;;;;;;;1.38;0.80;;;9.70;99.90;;;;;;5039168;28;20231;-78
2022/04/07 12:15:10;;;;;;;1.40;1.30;;;9.80;99.90;;;;;;5039009;28;20497;-75
2022/04/07 12:17:59;;;;;;;2.75;1.50;;;9.80;99.90;;;;;;5039623;28;20205;-75
2022/04/07 12:20:27;;;;;;;1.95;1.50;;;9.70;99.90;;;;;;5037771;28;20228;-76
2022/04/07 12:23:05;;;;;;;2.65;1.65;;;9.50;99.90;;;;;;5038855;28;20194;-76
2022/04/07 12:25:32;;;;;;;4.75;1.90;;;9.30;99.90;;;;;;5036186;28;20209;-79
2022/04/07 12:28:09;;;;;;;4.95;2.85;;;9.20;99.90;;;;;;5039263;28;20447;-78
2022/04/07 12:30:48;;;;;;;2.47;1.10;;;9.20;99.90;;;;;;5042538;28;20221;-73
2022/04/07 12:33:38;;;;;;;1.40;1.30;;;9.20;99.90;;;;;;5042052;28;20278;-78
2022/04/07 12:36:08;;;;;;;3.90;2.00;;;9.30;99.90;;;;;;5039701;28;20281;-78
2022/04/07 12:38:36;;;;;;;2.28;1.60;;;9.30;99.90;;;;;;5041441;28;20261;-78
2022/04/07 12:41:12;;;;;;;2.10;1.88;;;9.20;99.90;;;;;;5039820;28;20224;-75
2022/04/07 12:43:45;;;;;;;1.80;1.50;;;9.20;99.90;;;;;;5039186;28;20209;-75
2022/04/07 12:46:14;;;;;;;3.22;1.67;;;9.10;99.90;;;;;;5039975;28;20288;-78
2022/04/07 12:49:04;;;;;;;3.72;1.85;;;9.10;99.90;;;;;;5039083;28;20221;-79
2022/04/07 12:51:34;;;;;;;3.65;1.88;;;9.10;99.90;;;;;;5041654;28;20628;-72
2022/04/07 12:54:07;;;;;;;3.72;2.60;;;9.10;99.90;;;;;;5041773;28;20220;-75
2022/04/07 12:56:37;;;;;;;3.30;1.60;;;9.20;99.90;;;;;;5040112;28;20713;-73
2022/04/07 12:59:09;;;;;;;3.10;1.58;;;9.50;99.90;;;;;;5039986;28;20201;-73
2022/04/07 13:01:38;;;;;;;1.20;1.10;;;9.80;99.90;;;;;;5039701;28;20228;-73
2022/04/07 13:04:08;;;;;;;1.75;1.65;;;10.00;99.90;;;;;;5040303;28;20225;-74
2022/04/07 13:06:37;;;;;;;2.40;1.50;;;10.10;99.90;;;;;;5027537;28;20204;-73
2022/04/07 13:09:07;;;;;;;2.22;1.98;;;10.20;99.90;;;;;;5037113;28;20212;-73